sensor_id;sensor_type;location;lat;lon;timestamp;temperature;humidity
1107;DHT22;540;49.448;8.612;2022-12-18T15:52:54;-3.10;99.90
1107;DHT22;540;49.448;8.612;2022-12-18T15:55:23;-3.00;99.90
1107;DHT22;540;49.448;8.612;2022-12-18T15:58:10;-3.10;99.90
1107;DHT22;540;49.448;8.612;2022-12-18T16:00:40;-2.90;99.90
1107;DHT22;540;49.448;8.612;2022-12-18T16:03:08;-2.70;99.90
1107;DHT22;540;49.448;8.612;2022-12-18T16:05:37;-2.40;99.90
1107;DHT22;540;49.448;8.612;2022-12-18T16:08:07;-2.50;99.90
1107;DHT22;540;49.448;8.612;2022-12-18T16:10:35;-2.30;99.90
1107;DHT22;540;49.448;8.612;2022-12-18T16:13:03;-2.60;99.90
1107;DHT22;540;49.448;8.612;2022-12-18T16:15:30;-2.90;99.90
1107;DHT22;540;49.448;8.612;2022-12-18T16:17:58;-2.40;99.90
1107;DHT22;540;49.448;8.612;2022-12-18T16:20:26;-2.40;99.90
1107;DHT22;540;49.448;8.612;2022-12-18T16:22:54;-2.30;99.90
1107;DHT22;540;49.448;8.612;2022-12-18T16:25:24;-2.40;99.90
1107;DHT22;540;49.448;8.612;2022-12-18T16:27:54;-2.90;99.90
1107;DHT22;540;49.448;8.612;2022-12-18T16:30:24;-2.40;99.90
1107;DHT22;540;49.448;8.612;2022-12-18T16:32:55;-2.30;99.90
1107;DHT22;540;49.448;8.612;2022-12-18T16:35:25;-2.30;99.90
1107;DHT22;540;49.448;8.612;2022-12-18T16:37:53;-2.30;99.90
1107;DHT22;540;49.448;8.612;2022-12-18T16:40:22;-2.20;99.90
1107;DHT22;540;49.448;8.612;2022-12-18T16:42:51;-2.20;99.90
1107;DHT22;540;49.448;8.612;2022-12-18T16:45:19;-2.00;99.90
1107;DHT22;540;49.448;8.612;2022-12-18T16:47:46;-2.20;99.90
1107;DHT22;540;49.448;8.612;2022-12-18T16:50:14;-2.30;99.90
1107;DHT22;540;49.448;8.612;2022-12-18T16:52:42;-2.20;99.90
1107;DHT22;540;49.448;8.612;2022-12-18T16:55:10;-2.30;99.90
1107;DHT22;540;49.448;8.612;2022-12-18T16:57:39;-2.30;99.90
1107;DHT22;540;49.448;8.612;2022-12-18T17:00:08;-2.10;99.90
1107;DHT22;540;49.448;8.612;2022-12-18T17:02:36;-2.20;99.90
1107;DHT22;540;49.448;8.612;2022-12-18T17:05:05;-2.10;99.90
1107;DHT22;540;49.448;8.612;2022-12-18T17:07:33;-2.10;99.90
1107;DHT22;540;49.448;8.612;2022-12-18T17:10:02;-2.10;99.90
1107;DHT22;540;49.448;8.612;2022-12-18T17:12:30;-2.20;99.90
1107;DHT22;540;49.448;8.612;2022-12-18T17:14:59;-1.80;99.90
1107;DHT22;540;49.448;8.612;2022-12-18T17:17:27;-1.90;99.90
1107;DHT22;540;49.448;8.612;2022-12-18T17:19:55;-2.00;99.90
1107;DHT22;540;49.448;8.612;2022-12-18T17:22:23;-2.10;99.90
1107;DHT22;540;49.448;8.612;2022-12-18T17:24:51;-2.10;99.90
1107;DHT22;540;49.448;8.612;2022-12-18T17:27:19;-2.00;99.90
1107;DHT22;540;49.448;8.612;2022-12-18T17:29:47;-2.20;99.90
1107;DHT22;540;49.448;8.612;2022-12-18T17:32:17;-2.00;99.90
1107;DHT22;540;49.448;8.612;2022-12-18T17:34:45;-1.90;99.90
1107;DHT22;540;49.448;8.612;2022-12-18T17:37:14;-1.90;99.90
1107;DHT22;540;49.448;8.612;2022-12-18T17:39:42;-1.90;99.90
1107;DHT22;540;49.448;8.612;2022-12-18T17:42:10;-2.10;99.90
1107;DHT22;540;49.448;8.612;2022-12-18T17:44:41;-2.00;99.90
1107;DHT22;540;49.448;8.612;2022-12-18T17:47:09;-2.00;99.90
1107;DHT22;540;49.448;8.612;2022-12-18T17:49:39;-2.10;99.90
1107;DHT22;540;49.448;8.612;2022-12-18T17:52:07;-2.00;99.90
1107;DHT22;540;49.448;8.612;2022-12-18T17:54:36;-2.10;99.90
1107;DHT22;540;49.448;8.612;2022-12-18T17:57:07;-2.20;99.90
1107;DHT22;540;49.448;8.612;2022-12-18T17:59:34;-2.20;99.90
1107;DHT22;540;49.448;8.612;2022-12-18T18:02:02;-2.30;99.90
1107;DHT22;540;49.448;8.612;2022-12-18T18:04:30;-2.10;99.90
1107;DHT22;540;49.448;8.612;2022-12-18T18:07:00;-2.20;99.90
1107;DHT22;540;49.448;8.612;2022-12-18T18:09:27;-2.10;99.90
1107;DHT22;540;49.448;8.612;2022-12-18T18:11:55;-2.00;99.90
1107;DHT22;540;49.448;8.612;2022-12-18T18:14:40;-2.20;99.90
1107;DHT22;540;49.448;8.612;2022-12-18T18:17:09;-2.20;99.90
1107;DHT22;540;49.448;8.612;2022-12-18T18:19:37;-2.00;99.90
1107;DHT22;540;49.448;8.612;2022-12-18T18:22:07;-2.20;99.90
1107;DHT22;540;49.448;8.612;2022-12-18T18:24:35;-2.00;99.90
1107;DHT22;540;49.448;8.612;2022-12-18T18:27:03;-2.20;99.90
1107;DHT22;540;49.448;8.612;2022-12-18T18:29:31;-2.20;99.90
1107;DHT22;540;49.448;8.612;2022-12-18T18:31:59;-2.00;99.90
1107;DHT22;540;49.448;8.612;2022-12-18T18:34:29;-2.50;99.90
1107;DHT22;540;49.448;8.612;2022-12-18T18:36:58;-2.10;99.90
1107;DHT22;540;49.448;8.612;2022-12-18T18:39:28;-1.80;99.90
1107;DHT22;540;49.448;8.612;2022-12-18T18:41:56;-1.90;99.90
1107;DHT22;540;49.448;8.612;2022-12-18T18:44:25;-1.90;99.90
1107;DHT22;540;49.448;8.612;2022-12-18T18:46:53;-2.10;99.90
1107;DHT22;540;49.448;8.612;2022-12-18T18:49:22;-1.90;99.90
1107;DHT22;540;49.448;8.612;2022-12-18T18:51:52;-2.00;99.90
1107;DHT22;540;49.448;8.612;2022-12-18T18:54:20;-2.00;99.90
1107;DHT22;540;49.448;8.612;2022-12-18T18:56:49;-1.80;99.90
1107;DHT22;540;49.448;8.612;2022-12-18T18:59:37;-2.10;99.90
1107;DHT22;540;49.448;8.612;2022-12-18T19:02:06;-1.80;99.90
1107;DHT22;540;49.448;8.612;2022-12-18T19:04:36;-2.00;99.90
1107;DHT22;540;49.448;8.612;2022-12-18T19:07:12;-1.80;99.90
1107;DHT22;540;49.448;8.612;2022-12-18T19:09:51;-1.80;99.90
1107;DHT22;540;49.448;8.612;2022-12-18T19:12:21;-1.80;99.90
1107;DHT22;540;49.448;8.612;2022-12-18T19:15:07;-1.80;99.90
1107;DHT22;540;49.448;8.612;2022-12-18T19:17:35;-2.00;99.90
1107;DHT22;540;49.448;8.612;2022-12-18T19:20:06;-1.90;99.90
1107;DHT22;540;49.448;8.612;2022-12-18T19:22:36;-1.90;99.90
1107;DHT22;540;49.448;8.612;2022-12-18T19:25:04;-1.90;99.90
1107;DHT22;540;49.448;8.612;2022-12-18T19:27:34;-2.60;99.90
1107;DHT22;540;49.448;8.612;2022-12-18T19:30:06;-1.80;99.90
1107;DHT22;540;49.448;8.612;2022-12-18T19:32:35;-1.90;99.90
1107;DHT22;540;49.448;8.612;2022-12-18T19:35:03;-2.00;99.90
1107;DHT22;540;49.448;8.612;2022-12-18T19:37:33;-2.00;99.90
1107;DHT22;540;49.448;8.612;2022-12-18T19:40:01;-1.90;99.90
1107;DHT22;540;49.448;8.612;2022-12-18T19:42:39;-1.60;99.90
1107;DHT22;540;49.448;8.612;2022-12-18T19:45:07;-1.90;99.90
1107;DHT22;540;49.448;8.612;2022-12-18T19:47:35;-1.70;99.90
1107;DHT22;540;49.448;8.612;2022-12-18T19:50:04;-1.90;99.90
1107;DHT22;540;49.448;8.612;2022-12-18T19:52:32;-1.50;99.90
1107;DHT22;540;49.448;8.612;2022-12-18T19:55:00;-1.90;99.90
1107;DHT22;540;49.448;8.612;2022-12-18T19:57:28;-1.70;99.90
1107;DHT22;540;49.448;8.612;2022-12-18T19:59:57;-1.90;99.90
1107;DHT22;540;49.448;8.612;2022-12-18T20:02:26;-1.60;99.90
1107;DHT22;540;49.448;8.612;2022-12-18T20:04:55;-1.80;99.90
1107;DHT22;540;49.448;8.612;2022-12-18T20:07:23;-1.90;99.90
1107;DHT22;540;49.448;8.612;2022-12-18T20:09:51;-1.90;99.90
1107;DHT22;540;49.448;8.612;2022-12-18T20:12:32;-1.60;99.90
1107;DHT22;540;49.448;8.612;2022-12-18T20:15:01;-1.80;99.90
1107;DHT22;540;49.448;8.612;2022-12-18T20:17:29;-1.80;99.90
1107;DHT22;540;49.448;8.612;2022-12-18T20:19:58;-1.90;99.90
1107;DHT22;540;49.448;8.612;2022-12-18T20:22:26;-2.00;99.90
1107;DHT22;540;49.448;8.612;2022-12-18T20:24:54;-1.80;99.90
1107;DHT22;540;49.448;8.612;2022-12-18T20:27:22;-1.90;99.90
1107;DHT22;540;49.448;8.612;2022-12-18T20:29:50;-1.90;99.90
1107;DHT22;540;49.448;8.612;2022-12-18T20:32:19;-2.00;99.90
1107;DHT22;540;49.448;8.612;2022-12-18T20:34:47;-1.90;99.90
1107;DHT22;540;49.448;8.612;2022-12-18T20:37:15;-1.90;99.90
1107;DHT22;540;49.448;8.612;2022-12-18T20:39:44;-2.00;99.90
1107;DHT22;540;49.448;8.612;2022-12-18T20:42:13;-1.80;99.90
1107;DHT22;540;49.448;8.612;2022-12-18T20:44:40;-1.90;99.90
1107;DHT22;540;49.448;8.612;2022-12-18T20:47:08;-2.00;99.90
1107;DHT22;540;49.448;8.612;2022-12-18T20:49:37;-1.70;99.90
1107;DHT22;540;49.448;8.612;2022-12-18T20:52:10;-1.90;99.90
1107;DHT22;540;49.448;8.612;2022-12-18T20:54:38;-1.90;99.90
1107;DHT22;540;49.448;8.612;2022-12-18T20:57:06;-2.00;99.90
1107;DHT22;540;49.448;8.612;2022-12-18T20:59:34;-2.00;99.90
1107;DHT22;540;49.448;8.612;2022-12-18T21:02:02;-1.90;99.90
